Time;durP1;ratioP1;P1;durP2;ratioP2;P2;SDS_P1;SDS_P2;PMS_P1;PMS_P2;Temp;Humidity;BMP_temperature;BMP_pressure;BME280_temperature;BME280_humidity;BME280_pressure;Samples;Min_cycle;Max_cycle;Signal;HPM_P1;HPM_P2
2022/12/01 00:00:29;;;;;;;67.30;28.40;;;6.70;99.90;;;;;;5008543;28;20046;-75
2022/12/01 00:02:54;;;;;;;62.50;27.80;;;6.70;99.90;;;;;;5012632;28;20042;-76
2022/12/01 00:05:20;;;;;;;67.30;29.23;;;6.70;99.90;;;;;;5019579;28;20045;-75
2022/12/01 00:07:47;;;;;;;65.85;28.15;;;6.70;99.90;;;;;;4998822;28;20352;-75
2022/12/01 00:10:25;;;;;;;64.97;29.63;;;6.70;99.90;;;;;;5006771;28;20441;-75
2022/12/01 00:12:56;;;;;;;70.00;29.05;;;6.70;99.90;;;;;;5011501;28;20042;-77
2022/12/01 00:15:22;;;;;;;59.80;28.02;;;6.70;99.90;;;;;;5017230;28;20100;-75
2022/12/01 00:17:48;;;;;;;67.43;29.40;;;6.70;99.90;;;;;;5007208;28;20037;-75
2022/12/01 00:20:15;;;;;;;66.45;30.17;;;6.70;99.90;;;;;;5035706;28;20041;-75
2022/12/01 00:22:43;;;;;;;68.25;29.88;;;6.70;99.90;;;;;;5012642;28;20038;-75
2022/12/01 00:25:08;;;;;;;76.55;30.58;;;6.70;99.90;;;;;;5009627;28;20038;-75
2022/12/01 00:27:34;;;;;;;77.10;30.33;;;6.70;99.90;;;;;;5018551;28;20515;-75
2022/12/01 00:29:59;;;;;;;72.93;30.52;;;6.70;99.90;;;;;;5019740;28;20042;-75
2022/12/01 00:32:25;;;;;;;82.88;32.42;;;6.70;99.90;;;;;;5008691;28;20030;-75
2022/12/01 00:34:50;;;;;;;79.25;31.42;;;6.70;99.90;;;;;;5015584;28;20440;-75
2022/12/01 00:37:16;;;;;;;73.90;32.15;;;6.60;99.90;;;;;;5014004;28;20077;-75
2022/12/01 00:39:42;;;;;;;79.65;31.92;;;6.60;99.90;;;;;;5012420;28;20037;-76
2022/12/01 00:42:07;;;;;;;76.78;30.95;;;6.60;99.90;;;;;;5019158;28;20563;-76
2022/12/01 00:44:33;;;;;;;78.05;32.65;;;6.70;99.90;;;;;;5025245;28;20049;-75
2022/12/01 00:46:58;;;;;;;72.80;30.52;;;6.70;99.90;;;;;;5021730;28;20069;-75
2022/12/01 00:49:24;;;;;;;75.28;31.17;;;6.70;99.90;;;;;;5010000;28;20034;-76
2022/12/01 00:51:49;;;;;;;81.65;32.53;;;6.60;99.90;;;;;;5007159;28;20100;-76
2022/12/01 00:54:15;;;;;;;75.22;31.88;;;6.70;99.90;;;;;;5022935;28;20037;-77
2022/12/01 00:56:40;;;;;;;78.88;31.80;;;6.60;99.90;;;;;;5026019;28;20116;-75
2022/12/01 00:59:06;;;;;;;79.40;32.25;;;6.60;99.90;;;;;;5008361;28;20478;-75
2022/12/01 01:01:32;;;;;;;83.22;33.25;;;6.60;99.90;;;;;;5018970;28;20039;-76
2022/12/01 01:03:57;;;;;;;79.60;32.17;;;6.60;99.90;;;;;;5012226;28;20033;-75
2022/12/01 01:06:23;;;;;;;85.25;33.33;;;6.60;99.90;;;;;;5014495;28;20053;-76
2022/12/01 01:08:49;;;;;;;86.32;32.72;;;6.60;99.90;;;;;;5008090;28;20120;-76
2022/12/01 01:11:14;;;;;;;90.60;33.17;;;6.60;99.90;;;;;;5013394;28;20038;-77
2022/12/01 01:13:40;;;;;;;82.00;31.83;;;6.60;99.90;;;;;;5014904;28;20084;-76
2022/12/01 01:16:17;;;;;;;82.60;32.75;;;6.60;99.90;;;;;;5006571;28;20494;-76
2022/12/01 01:18:43;;;;;;;79.60;32.00;;;6.60;99.90;;;;;;5016679;28;20095;-77
2022/12/01 01:21:12;;;;;;;85.13;32.60;;;6.60;99.90;;;;;;5002773;28;20050;-76
2022/12/01 01:23:38;;;;;;;82.07;32.58;;;6.60;99.90;;;;;;5006839;28;20044;-76
2022/12/01 01:26:06;;;;;;;78.32;32.20;;;6.60;99.90;;;;;;5023511;28;20045;-76
2022/12/01 01:28:32;;;;;;;86.05;31.98;;;6.60;99.90;;;;;;5007982;28;20080;-76
2022/12/01 01:30:58;;;;;;;78.18;32.05;;;6.60;99.90;;;;;;5011325;28;20033;-76
2022/12/01 01:33:24;;;;;;;87.47;32.58;;;6.60;99.90;;;;;;5011230;28;20068;-75
2022/12/01 01:35:50;;;;;;;80.47;32.80;;;6.60;99.90;;;;;;5013238;28;20499;-76
2022/12/01 01:38:15;;;;;;;74.53;31.58;;;6.60;99.90;;;;;;5014769;28;20064;-76
2022/12/01 01:40:43;;;;;;;85.40;33.08;;;6.60;99.90;;;;;;5020932;28;20514;-76
2022/12/01 01:43:15;;;;;;;77.57;32.17;;;6.60;99.90;;;;;;5022123;28;20045;-77
2022/12/01 01:45:40;;;;;;;85.33;33.13;;;6.60;99.90;;;;;;5026723;28;20038;-76
2022/12/01 01:48:07;;;;;;;87.03;31.40;;;6.60;99.90;;;;;;5020214;28;20064;-76
2022/12/01 01:50:33;;;;;;;81.82;31.55;;;6.60;99.90;;;;;;5016305;28;20059;-77
2022/12/01 01:53:07;;;;;;;76.82;31.20;;;6.60;99.90;;;;;;5010617;28;20029;-76
2022/12/01 01:55:34;;;;;;;80.28;32.47;;;6.60;99.90;;;;;;5010039;28;20057;-76
2022/12/01 01:58:04;;;;;;;76.93;31.70;;;6.60;99.90;;;;;;5012501;28;20108;-76
2022/12/01 02:00:29;;;;;;;80.88;31.75;;;6.60;99.90;;;;;;5043726;28;20045;-77
2022/12/01 02:02:56;;;;;;;79.57;33.17;;;6.60;99.90;;;;;;5016227;28;20056;-76
2022/12/01 02:05:25;;;;;;;87.90;31.10;;;6.60;99.90;;;;;;5014144;28;20042;-76
2022/12/01 02:07:53;;;;;;;71.85;31.30;;;6.60;99.90;;;;;;5031650;28;20109;-76
2022/12/01 02:10:22;;;;;;;79.40;30.88;;;6.60;99.90;;;;;;5017954;28;20037;-76
2022/12/01 02:12:51;;;;;;;83.25;32.35;;;6.60;99.90;;;;;;5007170;28;20042;-76
2022/12/01 02:15:40;;;;;;;74.05;31.33;;;6.60;99.90;;;;;;5012862;28;20048;-76
2022/12/01 02:18:21;;;;;;;80.50;32.20;;;6.60;99.90;;;;;;4979540;28;20077;-76
2022/12/01 02:21:17;;;;;;;80.15;32.03;;;6.60;99.90;;;;;;5011540;28;20505;-76
2022/12/01 02:24:04;;;;;;;81.07;32.65;;;6.60;99.90;;;;;;5020082;28;20117;-75
2022/12/01 02:26:54;;;;;;;76.65;32.38;;;6.60;99.90;;;;;;5007862;28;20045;-76
2022/12/01 02:29:50;;;;;;;79.45;30.42;;;6.60;99.90;;;;;;5016541;28;20042;-76
2022/12/01 02:32:30;;;;;;;77.93;31.88;;;6.60;99.90;;;;;;5015024;28;20045;-76
2022/12/01 02:35:02;;;;;;;77.47;31.75;;;6.60;99.90;;;;;;5002903;28;20399;-77
2022/12/01 02:37:31;;;;;;;78.47;31.30;;;6.60;99.90;;;;;;5001289;28;20042;-76
2022/12/01 02:40:15;;;;;;;78.28;31.83;;;6.50;99.90;;;;;;5011767;28;20055;-78
2022/12/01 02:42:53;;;;;;;77.00;31.85;;;6.60;99.90;;;;;;5012738;28;20069;-76
2022/12/01 02:45:33;;;;;;;81.28;32.03;;;6.60;99.90;;;;;;5014686;28;20065;-76
2022/12/01 02:48:02;;;;;;;82.90;32.83;;;6.60;99.90;;;;;;5020301;28;20037;-78
2022/12/01 02:50:30;;;;;;;76.75;31.48;;;6.60;99.90;;;;;;5022771;28;20049;-76
2022/12/01 02:52:56;;;;;;;73.97;30.95;;;6.60;99.90;;;;;;5019497;28;20042;-76
2022/12/01 02:55:22;;;;;;;84.00;33.72;;;6.50;99.90;;;;;;5008755;28;20046;-76
2022/12/01 02:57:47;;;;;;;83.50;33.83;;;6.60;99.90;;;;;;5015838;28;20449;-77
2022/12/01 03:00:15;;;;;;;73.68;31.33;;;6.60;99.90;;;;;;5006408;28;20494;-78
2022/12/01 03:03:09;;;;;;;80.20;32.42;;;6.60;99.90;;;;;;5015873;28;20070;-76
2022/12/01 03:05:50;;;;;;;75.97;31.25;;;6.60;99.90;;;;;;5031306;28;20042;-76
2022/12/01 03:08:34;;;;;;;82.80;32.03;;;6.60;99.90;;;;;;5012665;28;20410;-76
2022/12/01 03:11:01;;;;;;;76.93;31.27;;;6.60;99.90;;;;;;5029191;28;20049;-76
2022/12/01 03:13:33;;;;;;;75.88;32.47;;;6.60;99.90;;;;;;5010316;28;20048;-76
2022/12/01 03:16:33;;;;;;;78.50;31.95;;;6.50;99.90;;;;;;5007173;28;20038;-80
2022/12/01 03:19:08;;;;;;;74.05;31.13;;;6.60;99.90;;;;;;5012863;28;20052;-76
2022/12/01 03:22:02;;;;;;;74.60;32.05;;;6.60;99.90;;;;;;5015038;28;20092;-76
2022/12/01 03:24:31;;;;;;;80.57;32.88;;;6.60;99.90;;;;;;5008131;28;20431;-76
2022/12/01 03:27:00;;;;;;;75.63;32.03;;;6.50;99.90;;;;;;5012838;28;20042;-76
2022/12/01 03:29:39;;;;;;;81.05;32.83;;;6.60;99.90;;;;;;5011575;28;20491;-76
2022/12/01 03:32:11;;;;;;;74.65;33.10;;;6.60;99.90;;;;;;5017177;28;20398;-76
2022/12/01 03:34:44;;;;;;;75.32;31.95;;;6.50;99.90;;;;;;5009599;28;20038;-76
2022/12/01 03:37:18;;;;;;;74.03;33.60;;;6.60;99.90;;;;;;4998480;28;20053;-76
2022/12/01 03:39:46;;;;;;;75.32;32.90;;;6.50;99.90;;;;;;5023563;28;20051;-76
2022/12/01 03:42:21;;;;;;;74.85;33.28;;;6.50;99.90;;;;;;5008198;28;20034;-75
2022/12/01 03:44:52;;;;;;;74.25;32.67;;;6.50;99.90;;;;;;5007180;28;20410;-76
2022/12/01 03:47:25;;;;;;;77.80;33.97;;;6.50;99.90;;;;;;5024314;28;20038;-76
2022/12/01 03:49:52;;;;;;;83.25;33.00;;;6.50;99.90;;;;;;5008273;28;20030;-78
2022/12/01 03:52:36;;;;;;;72.90;32.95;;;6.50;99.90;;;;;;5011420;28;20403;-76
2022/12/01 03:55:13;;;;;;;73.45;33.40;;;6.50;99.90;;;;;;5027898;28;20064;-76
2022/12/01 03:57:45;;;;;;;72.60;32.85;;;6.50;99.90;;;;;;5005554;28;20089;-78
2022/12/01 04:00:13;;;;;;;76.07;32.58;;;6.50;99.90;;;;;;4995203;28;20103;-76
2022/12/01 04:02:39;;;;;;;75.05;33.67;;;6.50;99.90;;;;;;5003003;28;20046;-75
2022/12/01 04:05:08;;;;;;;75.90;32.95;;;6.50;99.90;;;;;;5013746;28;20041;-76
2022/12/01 04:07:34;;;;;;;79.85;32.35;;;6.50;99.90;;;;;;5016941;28;20030;-76
2022/12/01 04:09:59;;;;;;;72.38;34.15;;;6.50;99.90;;;;;;4995913;28;20055;-76
2022/12/01 04:12:28;;;;;;;76.10;32.45;;;6.50;99.90;;;;;;5021661;28;20029;-76
2022/12/01 04:14:55;;;;;;;77.00;32.70;;;6.60;99.90;;;;;;5014148;28;20052;-76
2022/12/01 04:17:21;;;;;;;81.07;35.17;;;6.50;99.90;;;;;;5005289;28;20436;-79
2022/12/01 04:19:46;;;;;;;77.93;33.40;;;6.50;99.90;;;;;;5018161;28;20071;-76
2022/12/01 04:22:12;;;;;;;83.22;34.20;;;6.50;99.90;;;;;;5021963;28;20406;-76
2022/12/01 04:24:37;;;;;;;79.47;33.28;;;6.50;99.90;;;;;;5016311;28;20095;-76
2022/12/01 04:27:03;;;;;;;77.07;33.00;;;6.50;99.90;;;;;;5009865;28;20033;-76
2022/12/01 04:29:32;;;;;;;75.97;32.65;;;6.50;99.90;;;;;;5003877;28;20108;-75
2022/12/01 04:31:58;;;;;;;74.88;33.15;;;6.50;99.90;;;;;;5019462;28;20033;-78
2022/12/01 04:34:23;;;;;;;78.75;34.17;;;6.40;99.90;;;;;;5038694;28;20456;-76
2022/12/01 04:36:49;;;;;;;71.40;33.65;;;6.50;99.90;;;;;;5013942;28;20077;-77
2022/12/01 04:39:15;;;;;;;70.80;32.08;;;6.40;99.90;;;;;;5013572;28;20076;-76
2022/12/01 04:41:40;;;;;;;78.50;34.05;;;6.40;99.90;;;;;;5018620;28;20577;-76
2022/12/01 04:44:06;;;;;;;73.85;32.50;;;6.40;99.90;;;;;;5012371;28;20386;-77
2022/12/01 04:46:31;;;;;;;75.65;33.25;;;6.40;99.90;;;;;;5018806;28;20042;-76
2022/12/01 04:48:57;;;;;;;78.80;34.22;;;6.40;99.90;;;;;;5013251;28;20080;-76
2022/12/01 04:51:23;;;;;;;74.38;32.20;;;6.40;99.90;;;;;;5014981;28;20029;-77
2022/12/01 04:53:49;;;;;;;76.07;32.83;;;6.40;99.90;;;;;;5001053;28;20042;-76
2022/12/01 04:56:15;;;;;;;74.10;33.33;;;6.40;99.90;;;;;;5014662;28;20061;-76
2022/12/01 04:58:40;;;;;;;75.07;33.20;;;6.40;99.90;;;;;;5010070;28;20041;-77
2022/12/01 05:01:09;;;;;;;80.13;33.10;;;6.40;99.90;;;;;;5018980;28;20030;-76
2022/12/01 05:03:43;;;;;;;81.85;33.70;;;6.40;99.90;;;;;;5021065;28;20112;-78
2022/12/01 05:06:11;;;;;;;75.45;33.42;;;6.40;99.90;;;;;;5008666;28;20041;-78
2022/12/01 05:08:37;;;;;;;76.20;33.85;;;6.40;99.90;;;;;;5002083;28;20521;-76
2022/12/01 05:11:05;;;;;;;76.85;34.58;;;6.40;99.90;;;;;;5005006;28;20034;-77
2022/12/01 05:13:30;;;;;;;71.47;33.63;;;6.40;99.90;;;;;;4996435;28;20405;-77
2022/12/01 05:16:11;;;;;;;75.88;34.13;;;6.50;99.90;;;;;;5015729;28;20048;-77
2022/12/01 05:18:37;;;;;;;77.72;33.97;;;6.40;99.90;;;;;;4999647;28;20494;-77
2022/12/01 05:21:05;;;;;;;74.53;34.50;;;6.40;99.90;;;;;;5007256;28;20382;-76
2022/12/01 05:23:33;;;;;;;74.60;34.58;;;6.40;99.90;;;;;;5010739;28;20042;-77
2022/12/01 05:25:59;;;;;;;72.90;33.05;;;6.40;99.90;;;;;;5022248;28;20069;-78
2022/12/01 05:28:26;;;;;;;73.55;32.22;;;6.40;99.90;;;;;;5011183;28;20034;-78
2022/12/01 05:30:53;;;;;;;79.75;33.30;;;6.40;99.90;;;;;;5008255;28;20038;-77
2022/12/01 05:33:23;;;;;;;77.20;35.65;;;6.40;99.90;;;;;;5029844;28;20033;-77
2022/12/01 05:35:49;;;;;;;75.90;34.58;;;6.40;99.90;;;;;;4996289;28;20153;-77
2022/12/01 05:38:15;;;;;;;78.70;35.90;;;6.40;99.90;;;;;;4997724;28;20037;-78
2022/12/01 05:40:40;;;;;;;77.15;35.75;;;6.40;99.90;;;;;;5003198;28;20096;-77
2022/12/01 05:43:06;;;;;;;74.60;33.15;;;6.40;99.90;;;;;;5015187;28;20037;-78
2022/12/01 05:45:32;;;;;;;74.47;33.55;;;6.40;99.90;;;;;;5014487;28;20084;-76
2022/12/01 05:48:00;;;;;;;78.65;33.75;;;6.40;99.90;;;;;;5002890;28;20065;-77
2022/12/01 05:50:27;;;;;;;78.25;34.80;;;6.40;99.90;;;;;;5025861;28;20076;-79
2022/12/01 05:52:53;;;;;;;81.13;35.25;;;6.40;99.90;;;;;;5019304;28;20402;-77
2022/12/01 05:55:18;;;;;;;81.97;35.42;;;6.40;99.90;;;;;;5011877;28;20045;-77
2022/12/01 05:57:44;;;;;;;87.20;35.58;;;6.40;99.90;;;;;;5010512;28;20038;-78
2022/12/01 06:00:11;;;;;;;86.22;36.85;;;6.40;99.90;;;;;;5033053;28;20041;-77
2022/12/01 06:02:38;;;;;;;83.55;35.22;;;6.40;99.90;;;;;;5019381;28;20046;-77
2022/12/01 06:05:04;;;;;;;81.20;36.55;;;6.40;99.90;;;;;;5009693;28;20577;-77
2022/12/01 06:07:30;;;;;;;87.22;37.10;;;6.40;99.90;;;;;;5042969;28;20116;-77
2022/12/01 06:09:56;;;;;;;85.35;37.33;;;6.40;99.90;;;;;;5014897;28;20050;-78
2022/12/01 06:12:22;;;;;;;84.68;35.70;;;6.40;99.90;;;;;;5017744;28;20050;-77
2022/12/01 06:14:47;;;;;;;80.45;36.22;;;6.40;99.90;;;;;;5006222;28;20038;-76
2022/12/01 06:17:13;;;;;;;88.43;36.50;;;6.40;99.90;;;;;;5016815;28;20163;-77
2022/12/01 06:19:38;;;;;;;85.18;35.30;;;6.70;99.90;;;;;;5037313;28;20402;-77
2022/12/01 06:22:04;;;;;;;93.00;37.28;;;6.40;99.90;;;;;;5018692;28;20033;-77
2022/12/01 06:24:29;;;;;;;87.60;35.42;;;6.40;99.90;;;;;;4999861;28;20040;-77
2022/12/01 06:26:55;;;;;;;86.65;35.97;;;6.40;99.90;;;;;;5005483;28;20462;-77
2022/12/01 06:29:21;;;;;;;91.05;36.42;;;6.40;99.90;;;;;;5016255;28;20493;-78
2022/12/01 06:31:46;;;;;;;85.47;36.90;;;6.40;99.90;;;;;;5022934;28;20077;-76
2022/12/01 06:34:12;;;;;;;83.43;36.55;;;6.40;99.90;;;;;;5016029;28;20076;-77
2022/12/01 06:36:37;;;;;;;85.32;35.70;;;6.40;99.90;;;;;;5007293;28;20040;-78
2022/12/01 06:39:10;;;;;;;83.75;35.88;;;6.40;99.90;;;;;;5044977;28;20033;-77
2022/12/01 06:41:37;;;;;;;88.45;35.95;;;6.40;99.90;;;;;;5014610;28;20050;-76
2022/12/01 06:44:03;;;;;;;87.85;37.08;;;6.40;99.90;;;;;;4995304;28;20033;-76
2022/12/01 06:46:28;;;;;;;89.68;38.25;;;6.30;99.90;;;;;;5018129;28;20034;-77
2022/12/01 06:48:54;;;;;;;87.30;36.47;;;6.60;99.90;;;;;;5011184;28;20092;-76
2022/12/01 06:51:20;;;;;;;81.60;34.85;;;6.30;99.90;;;;;;5021965;28;20033;-76
2022/12/01 06:53:45;;;;;;;94.35;37.15;;;6.40;99.90;;;;;;4999378;28;20041;-78
2022/12/01 06:56:11;;;;;;;91.03;37.22;;;6.40;99.90;;;;;;5025085;28;20486;-76
2022/12/01 06:58:37;;;;;;;88.45;36.90;;;6.30;99.90;;;;;;5025764;28;20033;-76
2022/12/01 07:01:11;;;;;;;81.20;35.97;;;6.30;99.90;;;;;;5034726;28;20096;-77
2022/12/01 07:03:37;;;;;;;84.00;37.33;;;6.30;99.90;;;;;;5005994;28;20050;-76
2022/12/01 07:06:03;;;;;;;81.20;35.55;;;6.30;99.90;;;;;;5008122;28;20083;-77
2022/12/01 07:08:30;;;;;;;83.35;35.15;;;6.30;99.90;;;;;;5009502;28;20076;-75
2022/12/01 07:11:03;;;;;;;83.50;35.65;;;6.30;99.90;;;;;;5022173;28;20459;-77
2022/12/01 07:13:28;;;;;;;89.90;37.08;;;6.30;99.90;;;;;;5041447;28;20037;-75
2022/12/01 07:15:54;;;;;;;83.75;36.15;;;6.30;99.90;;;;;;5011418;28;20092;-76
2022/12/01 07:18:20;;;;;;;92.45;37.00;;;6.30;99.90;;;;;;5005869;28;20038;-77
2022/12/01 07:20:46;;;;;;;87.55;37.70;;;6.30;99.90;;;;;;5020045;28;20556;-75
2022/12/01 07:23:11;;;;;;;90.30;36.28;;;6.40;99.90;;;;;;5019146;28;20490;-75
2022/12/01 07:25:37;;;;;;;86.25;35.47;;;6.30;99.90;;;;;;5007319;28;20045;-76
2022/12/01 07:28:03;;;;;;;88.78;36.85;;;6.30;99.90;;;;;;5028447;28;20085;-76
2022/12/01 07:30:28;;;;;;;85.32;36.03;;;6.30;99.90;;;;;;5013781;28;20483;-76
2022/12/01 07:32:54;;;;;;;84.95;35.33;;;6.30;99.90;;;;;;5021128;28;20045;-75
2022/12/01 07:35:19;;;;;;;85.95;35.72;;;6.30;99.90;;;;;;5008027;28;20054;-75
2022/12/01 07:37:45;;;;;;;84.35;35.58;;;6.40;99.90;;;;;;5009035;28;20041;-76
2022/12/01 07:40:11;;;;;;;83.53;37.08;;;6.30;99.90;;;;;;5021231;28;20044;-76
2022/12/01 07:42:40;;;;;;;88.50;36.85;;;6.30;99.90;;;;;;5006493;28;20039;-75
2022/12/01 07:45:06;;;;;;;90.22;36.58;;;6.30;99.90;;;;;;5013117;28;20130;-75
2022/12/01 07:47:32;;;;;;;83.32;37.10;;;6.30;99.90;;;;;;5012330;28;20041;-76
2022/12/01 07:49:57;;;;;;;83.57;36.05;;;6.30;99.90;;;;;;5010379;28;20037;-75
2022/12/01 07:52:23;;;;;;;85.75;37.22;;;7.00;99.90;;;;;;5017351;28;20545;-77
2022/12/01 07:54:48;;;;;;;86.75;38.33;;;6.30;99.90;;;;;;5024534;28;20079;-75
2022/12/01 07:57:14;;;;;;;84.40;36.17;;;6.30;99.90;;;;;;5020924;28;20037;-75
2022/12/01 07:59:40;;;;;;;82.10;34.50;;;6.30;99.90;;;;;;5007662;28;20495;-75
2022/12/01 08:02:07;;;;;;;80.53;34.40;;;6.30;99.90;;;;;;5016539;28;20038;-76
2022/12/01 08:04:32;;;;;;;82.47;36.08;;;6.30;99.90;;;;;;5007117;28;20061;-75
2022/12/01 08:06:58;;;;;;;81.97;34.50;;;6.30;99.90;;;;;;5026668;28;20060;-75
2022/12/01 08:09:24;;;;;;;82.90;34.67;;;6.30;99.90;;;;;;5004781;28;20034;-75
2022/12/01 08:11:49;;;;;;;90.95;36.85;;;6.30;99.90;;;;;;5028433;28;20505;-75
2022/12/01 08:14:15;;;;;;;84.30;35.90;;;6.30;99.90;;;;;;5024850;28;20044;-76
2022/12/01 08:16:41;;;;;;;81.22;36.00;;;6.30;99.90;;;;;;5010009;28;20076;-75
2022/12/01 08:19:09;;;;;;;77.88;35.00;;;6.30;99.90;;;;;;5006742;28;20034;-75
2022/12/01 08:21:36;;;;;;;81.25;34.42;;;6.30;99.90;;;;;;5004670;28;20037;-75
2022/12/01 08:24:03;;;;;;;81.18;35.30;;;6.30;99.90;;;;;;5017001;28;20098;-75
2022/12/01 08:26:29;;;;;;;86.60;36.28;;;6.40;99.90;;;;;;5019189;28;20076;-75
2022/12/01 08:28:55;;;;;;;88.47;36.38;;;6.40;99.90;;;;;;5017831;28;20046;-76
2022/12/01 08:31:28;;;;;;;89.60;35.97;;;6.30;99.90;;;;;;5009438;28;20080;-75
2022/12/01 08:33:54;;;;;;;86.88;37.72;;;6.40;99.90;;;;;;5013124;28;20047;-75
2022/12/01 08:36:20;;;;;;;81.70;36.38;;;6.40;99.90;;;;;;5006627;28;20084;-75
2022/12/01 08:38:49;;;;;;;93.55;35.85;;;6.40;99.90;;;;;;5014863;28;20046;-77
2022/12/01 08:41:16;;;;;;;87.95;36.10;;;6.40;99.90;;;;;;5013366;28;20041;-77
2022/12/01 08:43:43;;;;;;;91.63;37.83;;;6.40;99.90;;;;;;5008661;28;20034;-75
2022/12/01 08:46:12;;;;;;;91.22;37.78;;;6.40;99.90;;;;;;5002121;28;20085;-76
2022/12/01 08:48:38;;;;;;;87.50;36.83;;;6.50;99.90;;;;;;5010519;28;20116;-78
2022/12/01 08:51:15;;;;;;;83.93;36.20;;;6.50;99.90;;;;;;5011440;28;20034;-76
2022/12/01 08:53:44;;;;;;;87.53;36.40;;;6.50;99.90;;;;;;5010075;28;20425;-75
2022/12/01 08:56:19;;;;;;;87.13;37.60;;;6.50;99.90;;;;;;5006918;28;20048;-76
2022/12/01 08:58:45;;;;;;;98.10;40.08;;;6.50;99.90;;;;;;5006889;28;20037;-76
2022/12/01 09:01:13;;;;;;;92.03;39.15;;;6.60;99.90;;;;;;5005762;28;20057;-75
2022/12/01 09:03:40;;;;;;;95.70;38.97;;;6.50;99.90;;;;;;4986750;28;20054;-77
2022/12/01 09:06:11;;;;;;;95.50;38.08;;;6.60;99.90;;;;;;4998344;28;20061;-76
2022/12/01 09:08:37;;;;;;;81.88;35.67;;;6.60;99.90;;;;;;5000990;28;20038;-76
2022/12/01 09:11:05;;;;;;;86.93;36.47;;;6.60;99.90;;;;;;4998854;28;20035;-75
2022/12/01 09:13:33;;;;;;;81.22;35.88;;;6.60;99.90;;;;;;4997418;28;20062;-75
2022/12/01 09:16:04;;;;;;;88.55;36.63;;;6.60;99.90;;;;;;5011175;28;20040;-75
2022/12/01 09:18:30;;;;;;;95.25;37.15;;;6.60;99.90;;;;;;5009778;28;20050;-76
2022/12/01 09:20:56;;;;;;;86.30;35.38;;;6.70;99.90;;;;;;5001838;28;20122;-75
2022/12/01 09:23:23;;;;;;;91.53;37.25;;;6.70;99.90;;;;;;5003854;28;20054;-75
2022/12/01 09:25:50;;;;;;;80.03;35.35;;;6.70;99.90;;;;;;5004920;28;20437;-75
2022/12/01 09:28:16;;;;;;;87.93;36.63;;;6.70;99.90;;;;;;5009043;28;20030;-77
2022/12/01 09:30:43;;;;;;;85.13;35.63;;;6.70;99.90;;;;;;5013184;28;20042;-75
2022/12/01 09:33:09;;;;;;;84.43;35.65;;;6.70;99.90;;;;;;5025910;28;20481;-76
2022/12/01 09:35:34;;;;;;;87.43;35.58;;;6.60;99.90;;;;;;5001196;28;20043;-75
2022/12/01 09:38:00;;;;;;;83.07;35.13;;;6.60;99.90;;;;;;5020956;28;20041;-75
2022/12/01 09:40:41;;;;;;;83.50;34.78;;;6.60;99.90;;;;;;5016517;28;20060;-75
2022/12/01 09:43:22;;;;;;;79.93;35.20;;;6.50;99.90;;;;;;5003238;28;20049;-75
2022/12/01 09:45:57;;;;;;;86.93;36.10;;;6.60;99.90;;;;;;5020033;28;20045;-75
2022/12/01 09:48:42;;;;;;;78.75;33.97;;;6.60;99.90;;;;;;5007410;28;20046;-76
2022/12/01 09:51:23;;;;;;;80.47;35.88;;;6.60;99.90;;;;;;5008261;28;20041;-75
2022/12/01 09:53:53;;;;;;;85.82;37.72;;;6.60;99.90;;;;;;5011152;28;20100;-75
2022/12/01 09:56:28;;;;;;;89.25;37.95;;;6.60;99.90;;;;;;5016743;28;20068;-75
2022/12/01 09:58:58;;;;;;;89.50;37.22;;;6.60;99.90;;;;;;5002394;28;20502;-75
2022/12/01 10:01:40;;;;;;;86.50;38.00;;;6.70;99.90;;;;;;5018317;28;20045;-76
2022/12/01 10:04:19;;;;;;;85.07;37.65;;;6.70;99.90;;;;;;5001971;28;20050;-75
2022/12/01 10:06:51;;;;;;;81.68;35.65;;;6.70;99.90;;;;;;5013621;28;20049;-77
2022/12/01 10:09:48;;;;;;;89.65;37.20;;;6.80;99.90;;;;;;4997896;28;20049;-75
2022/12/01 10:12:17;;;;;;;83.93;34.70;;;6.80;99.90;;;;;;4975962;28;20124;-75
2022/12/01 10:14:47;;;;;;;84.18;37.42;;;6.70;99.90;;;;;;5019525;28;20403;-76
2022/12/01 10:17:50;;;;;;;85.25;37.25;;;6.80;99.90;;;;;;5005526;28;20113;-75
2022/12/01 10:20:20;;;;;;;;;;;6.80;99.90;;;;;;5012043;28;20030;-75
2022/12/01 10:22:51;;;;;;;80.65;34.97;;;6.90;99.90;;;;;;5013655;28;19921;-76
2022/12/01 10:25:26;;;;;;;79.43;33.93;;;6.80;99.90;;;;;;4999187;28;20056;-76
2022/12/01 10:28:40;;;;;;;81.47;35.40;;;6.80;99.90;;;;;;5015220;28;20665;-76
2022/12/01 10:31:23;;;;;;;85.53;35.42;;;6.80;99.90;;;;;;4967345;28;20076;-75
2022/12/01 10:34:29;;;;;;;80.80;34.13;;;6.80;99.90;;;;;;4975449;28;20097;-77
2022/12/01 10:36:56;;;;;;;87.88;36.17;;;6.90;99.90;;;;;;5010929;28;20405;-76
2022/12/01 10:39:41;;;;;;;82.38;35.75;;;6.70;99.90;;;;;;5024079;28;20041;-77
2022/12/01 10:42:15;;;;;;;82.60;36.00;;;6.70;99.90;;;;;;5012210;28;20586;-76
2022/12/01 10:44:41;;;;;;;87.40;34.28;;;6.70;99.90;;;;;;5016448;28;20131;-76
2022/12/01 10:47:30;;;;;;;80.05;35.65;;;6.60;99.90;;;;;;5016714;28;20049;-76
2022/12/01 10:49:56;;;;;;;77.40;34.70;;;6.80;99.90;;;;;;5016039;28;20173;-76
2022/12/01 10:52:34;;;;;;;82.57;35.78;;;6.60;99.90;;;;;;5018338;28;20125;-75
2022/12/01 10:55:01;;;;;;;79.80;34.28;;;6.60;99.90;;;;;;5017832;28;20048;-77
2022/12/01 10:57:29;;;;;;;83.53;35.38;;;6.60;99.90;;;;;;5018408;28;20042;-76
2022/12/01 11:00:07;;;;;;;74.72;33.53;;;6.60;99.90;;;;;;5009655;28;20039;-76
2022/12/01 11:02:34;;;;;;;78.57;34.33;;;6.60;99.90;;;;;;5026729;28;20070;-76
2022/12/01 11:05:06;;;;;;;76.53;33.63;;;6.60;99.90;;;;;;5010982;28;20041;-76
2022/12/01 11:07:44;;;;;;;79.43;34.00;;;6.70;99.90;;;;;;5009650;28;20420;-77
2022/12/01 11:10:27;;;;;;;76.15;33.95;;;6.70;99.90;;;;;;5012375;28;20530;-76
2022/12/01 11:12:56;;;;;;;70.53;32.47;;;6.70;99.90;;;;;;5013146;28;20039;-76
2022/12/01 11:15:24;;;;;;;74.47;33.80;;;6.70;99.90;;;;;;5026713;28;20501;-76
2022/12/01 11:18:00;;;;;;;75.35;33.00;;;6.70;99.90;;;;;;5014446;28;20087;-76
2022/12/01 11:20:28;;;;;;;76.00;33.25;;;6.70;99.90;;;;;;5028576;28;20038;-76
2022/12/01 11:23:25;;;;;;;74.35;34.17;;;6.70;99.90;;;;;;5024450;28;20038;-76
2022/12/01 11:26:14;;;;;;;70.95;31.17;;;6.70;99.90;;;;;;5019991;28;20140;-76
2022/12/01 11:28:50;;;;;;;67.65;31.30;;;6.70;99.90;;;;;;5036100;28;20113;-76
2022/12/01 11:31:17;;;;;;;70.57;32.30;;;6.80;99.90;;;;;;5023764;28;20133;-76
2022/12/01 11:33:51;;;;;;;65.15;30.77;;;6.80;99.90;;;;;;5000518;28;20070;-76
2022/12/01 11:36:23;;;;;;;70.20;30.70;;;6.80;99.90;;;;;;5005956;28;20110;-75
2022/12/01 11:38:53;;;;;;;67.82;31.33;;;6.80;99.90;;;;;;5015652;28;20136;-75
2022/12/01 11:41:39;;;;;;;61.95;30.35;;;6.80;99.90;;;;;;5036654;28;20114;-74
2022/12/01 11:44:15;;;;;;;65.18;30.67;;;6.90;99.90;;;;;;5013744;28;20107;-74
2022/12/01 11:46:41;;;;;;;63.92;31.08;;;6.90;99.90;;;;;;5029302;28;20054;-76
2022/12/01 11:49:16;;;;;;;67.25;31.10;;;7.00;99.90;;;;;;5029938;28;20056;-76
2022/12/01 11:51:42;;;;;;;64.82;30.73;;;7.00;99.90;;;;;;4997543;28;20128;-76
2022/12/01 11:54:22;;;;;;;67.88;31.80;;;7.10;99.90;;;;;;5017048;28;20125;-76
2022/12/01 11:56:50;;;;;;;68.40;32.45;;;7.10;99.90;;;;;;5017502;28;20129;-76
2022/12/01 11:59:26;;;;;;;67.72;30.95;;;7.20;99.90;;;;;;5003509;28;20073;-76
2022/12/01 12:02:01;;;;;;;69.80;31.77;;;7.20;99.90;;;;;;5020070;28;20038;-75
2022/12/01 12:04:46;;;;;;;65.47;31.15;;;7.20;99.90;;;;;;5029179;28;20046;-76
2022/12/01 12:07:44;;;;;;;73.85;32.38;;;7.20;99.90;;;;;;5022457;28;20045;-75
2022/12/01 12:10:38;;;;;;;71.28;31.33;;;7.20;99.90;;;;;;5019704;28;20053;-77
2022/12/01 12:13:28;;;;;;;69.15;32.33;;;7.20;99.90;;;;;;4991721;28;20516;-76
2022/12/01 12:16:18;;;;;;;69.03;32.13;;;7.30;99.90;;;;;;5019716;28;20117;-76
2022/12/01 12:18:49;;;;;;;68.60;30.65;;;7.30;99.90;;;;;;5010918;28;20038;-77
2022/12/01 12:21:32;;;;;;;66.15;30.55;;;7.30;99.90;;;;;;4996670;28;20068;-75
2022/12/01 12:24:48;;;;;;;71.95;31.27;;;7.30;99.90;;;;;;5034328;28;20433;-76
2022/12/01 12:27:46;;;;;;;68.07;31.58;;;7.30;99.90;;;;;;4928272;29;20047;-77
2022/12/01 12:30:14;;;;;;;68.53;32.30;;;7.40;99.90;;;;;;4922108;29;20053;-76
2022/12/01 12:32:48;;;;;;;70.22;32.10;;;7.40;99.90;;;;;;4985496;28;20054;-76
2022/12/01 12:35:32;;;;;;;65.47;32.28;;;7.30;99.90;;;;;;5012878;28;20454;-76
2022/12/01 12:37:58;;;;;;;61.42;31.38;;;7.30;99.90;;;;;;5014994;28;20502;-77
2022/12/01 12:40:42;;;;;;;68.78;31.33;;;7.40;99.90;;;;;;5020956;28;20084;-76
2022/12/01 12:43:17;;;;;;;67.85;30.65;;;7.30;99.90;;;;;;5005402;28;20519;-76
2022/12/01 12:45:58;;;;;;;61.60;29.73;;;7.40;99.90;;;;;;5008028;28;20515;-76
2022/12/01 12:48:26;;;;;;;66.18;31.27;;;7.40;99.90;;;;;;5002243;28;20499;-76
2022/12/01 12:51:04;;;;;;;68.22;29.98;;;7.40;99.90;;;;;;5020304;28;20045;-76
2022/12/01 12:53:41;;;;;;;69.63;31.75;;;7.40;99.90;;;;;;5021570;28;20545;-76
2022/12/01 12:56:10;;;;;;;66.05;31.08;;;7.40;99.90;;;;;;5009201;28;20033;-76